EDFM

Mannheim City Airport

Mannheim, Germany
METAR EDFM 191620Z 15004KT CAVOK 00/M05 Q1015
Observed Flight Rules
Jan-19 @ 16:20 UTC (26 minutes ago) Visual Flight Rules
Wind Visibility Clouds
150° at 4 knots 10,000+ meters
  • Clear skies
Temperatures Readings
Current 0°C / 32°F
Dewpoint -5°C / 23°F
Humidity 69%
Altimeter 29.97" Hg
Pressure 1014.92 hPa
Elevation 100
METAR EDFM 191620Z 15004KT CAVOK 00/M05 Q1015
Observed Flight Rules
Jan-19 @ 16:20 UTC
(26 minutes ago)
VFR
Wind Visibility
150° at 4 knots 10,000+ meters
Clouds
  • Clear skies
Temperature Dewpoint
0°C / 32°F -5°C / 23°F
Humidity Altimeter Pressure
69% 29.97" Hg 1014.92 hPa